Riley, Michigan
Current Conditions -  °F | °C
As of 2:56 PM on Friday 24 Oct 2014 (Local Time) from KPHN Reporting Station
Overcast Overcast  
Wind Chill: 59°   Ceiling: 4800
Heat Index: 59°   Visibility: 10mi
Dew Point: 43°   Wind: 6mph
Humidity: 55%   Direction: 210°SSW
Pressure: 29.99"   Gusts: NA
Location:  42.9405°N, 82.8034°W
Report Text: KPHN 241856Z AUTO 21005KT 10SM OVC048 15/06 A2999 RMK AO2
Loading
Personal Weather Stations






























Interactive Weather Map
Tropical Storm Tracking
New forecast layout! Learn more

10-Day Weather Forecast

Advertisements
Track Severe Weather on mobile